createdAt,value
2022-12-20T00:00:00.639Z,83.99
2022-12-20T00:05:01.431Z,84.19
2022-12-20T00:10:03.606Z,84.12
2022-12-20T00:15:04.767Z,83.79
2022-12-20T00:20:07.041Z,83.84
2022-12-20T00:25:09.785Z,83.86
2022-12-20T00:30:11.291Z,83.67
2022-12-20T00:35:12.445Z,84.06
2022-12-20T00:40:15.015Z,84.64
2022-12-20T00:45:15.929Z,84.08
2022-12-20T00:50:16.905Z,84.05
2022-12-20T00:55:19.019Z,83.87
2022-12-20T01:00:20.788Z,83.94
2022-12-20T01:05:21.571Z,84.29
2022-12-20T01:10:24.033Z,84.31
2022-12-20T01:15:25.137Z,82.99
2022-12-20T01:20:27.362Z,83.50
2022-12-20T01:25:30.020Z,82.91
2022-12-20T01:30:31.114Z,82.74
2022-12-20T01:35:31.922Z,82.25
2022-12-20T01:40:34.293Z,82.65
2022-12-20T01:45:35.120Z,83.10
2022-12-20T01:50:36.666Z,83.03
2022-12-20T01:55:38.992Z,82.92
2022-12-20T02:00:40.056Z,82.58
2022-12-20T02:05:44.364Z,82.74
2022-12-20T02:11:01.644Z,82.00
2022-12-20T02:16:04.905Z,82.39
2022-12-20T02:21:25.049Z,82.15
2022-12-20T02:26:58.304Z,81.88
2022-12-20T02:32:04.455Z,82.14
2022-12-20T02:37:05.624Z,82.47
2022-12-20T02:42:10.408Z,81.83
2022-12-20T02:47:17.039Z,81.85
2022-12-20T02:52:21.985Z,81.87
2022-12-20T02:57:30.052Z,82.37
2022-12-20T03:02:55.067Z,82.67
2022-12-20T03:07:57.683Z,82.85
2022-12-20T03:12:59.570Z,82.57
2022-12-20T03:18:04.424Z,81.97
2022-12-20T03:23:05.457Z,82.02
2022-12-20T03:28:06.312Z,82.12
2022-12-20T03:33:08.900Z,82.04
2022-12-20T03:38:10.731Z,81.62
2022-12-20T03:43:11.865Z,81.92
2022-12-20T03:48:14.137Z,81.94
2022-12-20T03:53:14.970Z,81.50
2022-12-20T03:58:17.229Z,81.47
2022-12-20T04:03:19.660Z,81.24
2022-12-20T04:08:20.621Z,81.18
2022-12-20T04:13:23.577Z,81.48
2022-12-20T04:18:25.894Z,81.15
2022-12-20T04:23:27.926Z,81.34
2022-12-20T04:28:28.819Z,81.49
2022-12-20T04:33:31.630Z,81.99
2022-12-20T04:38:33.406Z,81.82
2022-12-20T04:43:34.434Z,82.59
2022-12-20T04:48:58.415Z,82.77
2022-12-20T04:54:00.369Z,83.13
2022-12-20T04:59:10.965Z,84.54
2022-12-20T05:04:14.837Z,84.96
2022-12-20T05:09:16.001Z,84.91
2022-12-20T05:14:17.312Z,85.11
2022-12-20T05:19:19.528Z,84.80
2022-12-20T05:24:43.633Z,84.80
2022-12-20T05:29:56.346Z,85.03
2022-12-20T05:34:59.101Z,85.21
2022-12-20T05:40:00.055Z,85.17
2022-12-20T05:45:01.010Z,85.58
2022-12-20T05:50:07.424Z,85.07
2022-12-20T05:55:15.278Z,84.53
2022-12-20T06:00:17.067Z,84.28
2022-12-20T06:05:19.816Z,84.19
2022-12-20T06:10:21.940Z,83.47
2022-12-20T06:15:27.886Z,83.67
2022-12-20T06:20:31.288Z,83.06
2022-12-20T06:25:34.490Z,83.08
2022-12-20T06:30:35.971Z,82.79
2022-12-20T06:35:42.682Z,82.48
2022-12-20T06:40:43.689Z,82.65
2022-12-20T06:45:44.574Z,82.82
2022-12-20T06:50:55.628Z,82.76
2022-12-20T06:55:58.008Z,82.78
2022-12-20T07:00:59.201Z,82.49
2022-12-20T07:06:01.494Z,82.38
2022-12-20T07:11:06.714Z,82.21
2022-12-20T07:16:08.262Z,81.77
2022-12-20T07:21:10.520Z,82.25
2022-12-20T07:26:11.747Z,81.49
2022-12-20T07:31:12.602Z,81.24
2022-12-20T07:36:15.934Z,80.98
2022-12-20T07:41:18.927Z,80.52
2022-12-20T07:46:20.023Z,79.93
2022-12-20T07:51:26.682Z,79.31
2022-12-20T07:56:28.166Z,78.88
2022-12-20T08:01:30.656Z,79.47
2022-12-20T08:06:33.445Z,78.89
2022-12-20T08:11:36.280Z,78.08
2022-12-20T08:16:37.269Z,78.64
2022-12-20T08:21:39.809Z,78.17
2022-12-20T08:26:41.760Z,77.52
2022-12-20T08:31:49.455Z,77.64
2022-12-20T08:36:52.416Z,78.12
2022-12-20T08:41:53.190Z,77.59
2022-12-20T08:46:54.619Z,77.55
2022-12-20T08:51:56.861Z,78.26
2022-12-20T08:56:57.700Z,80.02
2022-12-20T09:01:59.504Z,80.00
2022-12-20T09:07:01.716Z,77.18
2022-12-20T09:12:02.621Z,76.62
2022-12-20T09:17:03.401Z,75.39
2022-12-20T09:22:05.547Z,75.57
2022-12-20T09:27:07.385Z,75.35
2022-12-20T09:32:08.805Z,75.36
2022-12-20T09:37:11.176Z,75.26
2022-12-20T09:42:14.953Z,74.75
2022-12-20T09:47:18.963Z,74.51
2022-12-20T09:52:33.084Z,74.01
2022-12-20T09:57:48.825Z,73.31
2022-12-20T10:03:06.640Z,73.13
2022-12-20T10:08:21.508Z,72.12
2022-12-20T10:13:35.776Z,72.16
2022-12-20T10:18:56.333Z,72.84
2022-12-20T10:24:02.466Z,72.83
2022-12-20T10:29:03.313Z,73.80
2022-12-20T10:34:04.149Z,73.67
2022-12-20T10:39:09.152Z,74.64
2022-12-20T10:44:19.795Z,74.04
2022-12-20T10:49:31.136Z,74.05
2022-12-20T10:54:36.381Z,74.03
2022-12-20T10:59:40.391Z,74.84
2022-12-20T11:04:41.209Z,74.29
2022-12-20T11:09:54.011Z,73.77
2022-12-20T11:15:14.328Z,74.26
2022-12-20T11:20:28.158Z,73.21
2022-12-20T11:25:40.914Z,73.05
2022-12-20T11:30:50.971Z,72.57
2022-12-20T11:35:56.671Z,71.78
2022-12-20T11:41:10.895Z,72.55
2022-12-20T11:46:26.255Z,72.72
2022-12-20T11:51:36.337Z,73.63
2022-12-20T11:56:44.312Z,73.66
2022-12-20T12:01:53.154Z,72.98
2022-12-20T12:06:59.373Z,72.75
2022-12-20T12:12:07.819Z,72.93
2022-12-20T12:17:15.880Z,73.10
2022-12-20T12:22:21.200Z,73.15
2022-12-20T12:27:26.743Z,73.72
2022-12-20T12:32:34.399Z,73.84
2022-12-20T12:37:55.827Z,74.44
2022-12-20T12:43:16.744Z,75.08
2022-12-20T12:48:23.272Z,74.94
2022-12-20T12:53:31.312Z,75.34
2022-12-20T12:58:35.513Z,75.00
2022-12-20T13:03:41.001Z,75.08
2022-12-20T13:08:49.954Z,75.10
2022-12-20T13:13:52.182Z,74.97
2022-12-20T13:19:13.188Z,75.15
2022-12-20T13:24:40.349Z,74.95
2022-12-20T13:30:22.083Z,74.73
2022-12-20T13:35:31.180Z,75.40
2022-12-20T13:40:37.608Z,75.69
2022-12-20T13:45:40.874Z,74.65
2022-12-20T13:50:48.155Z,75.04
2022-12-20T13:55:50.198Z,74.79
2022-12-20T14:00:53.681Z,75.08
2022-12-20T14:05:59.478Z,76.13
2022-12-20T14:11:09.846Z,76.33
2022-12-20T14:16:16.912Z,76.13
2022-12-20T14:21:19.368Z,76.02
2022-12-20T14:26:24.986Z,76.21
2022-12-20T14:31:29.975Z,75.79
2022-12-20T14:36:31.753Z,76.19
2022-12-20T14:41:36.058Z,77.32
2022-12-20T14:46:43.587Z,76.32
2022-12-20T14:51:48.048Z,76.39
2022-12-20T14:56:50.934Z,76.26
2022-12-20T15:01:53.705Z,76.66
2022-12-20T15:06:55.294Z,76.73
2022-12-20T15:11:57.442Z,76.29
2022-12-20T15:16:59.547Z,76.40
2022-12-20T15:22:01.203Z,77.01
2022-12-20T15:27:01.872Z,76.11
2022-12-20T15:32:07.760Z,76.65
2022-12-20T15:37:18.188Z,76.35
2022-12-20T15:42:23.002Z,76.21
2022-12-20T15:47:25.231Z,75.82
2022-12-20T15:52:26.234Z,75.54
2022-12-20T15:57:28.743Z,75.72
2022-12-20T16:02:31.789Z,75.86
2022-12-20T16:07:32.641Z,75.97
2022-12-20T16:12:35.612Z,76.15
2022-12-20T16:17:37.629Z,75.83
2022-12-20T16:22:38.484Z,76.65
2022-12-20T16:27:39.138Z,76.25
2022-12-20T16:32:41.485Z,75.64
2022-12-20T16:37:42.156Z,76.65
2022-12-20T16:42:42.820Z,76.64
2022-12-20T16:47:44.794Z,76.30
2022-12-20T16:52:46.464Z,76.21
2022-12-20T16:57:47.177Z,76.56
2022-12-20T17:02:49.315Z,75.82
2022-12-20T17:07:50.281Z,75.76
2022-12-20T17:12:51.471Z,76.63
2022-12-20T17:17:54.170Z,76.64
2022-12-20T17:22:56.573Z,77.66
2022-12-20T17:27:57.594Z,77.74
2022-12-20T17:32:59.596Z,78.58
2022-12-20T17:38:01.895Z,77.74
2022-12-20T17:43:02.608Z,76.76
2022-12-20T17:48:05.018Z,77.21
2022-12-20T17:53:05.702Z,76.70
2022-12-20T17:58:06.367Z,76.77
2022-12-20T18:03:12.681Z,76.62
2022-12-20T18:08:20.754Z,76.38
2022-12-20T18:13:21.445Z,76.66
2022-12-20T18:18:23.484Z,76.31
2022-12-20T18:23:24.162Z,76.32
2022-12-20T18:28:24.858Z,76.19
2022-12-20T18:33:26.886Z,75.94
2022-12-20T18:38:27.702Z,75.93
2022-12-20T18:43:30.648Z,75.61
2022-12-20T18:48:32.718Z,76.50
2022-12-20T18:53:34.151Z,76.64
2022-12-20T18:58:36.446Z,75.64
2022-12-20T19:03:39.343Z,76.10
2022-12-20T19:08:40.485Z,75.38
2022-12-20T19:13:43.670Z,76.10
2022-12-20T19:18:46.149Z,75.33
2022-12-20T19:23:49.640Z,75.36
2022-12-20T19:28:50.824Z,75.63
2022-12-20T19:33:55.781Z,75.31
2022-12-20T19:38:58.820Z,75.08
2022-12-20T19:44:00.379Z,75.38
2022-12-20T19:49:02.516Z,75.12
2022-12-20T19:54:03.335Z,76.34
2022-12-20T19:59:04.505Z,76.45
2022-12-20T20:04:07.757Z,76.12
2022-12-20T20:09:08.531Z,76.49
2022-12-20T20:14:10.367Z,76.22
2022-12-20T20:19:12.520Z,76.21
2022-12-20T20:24:13.328Z,76.00
2022-12-20T20:29:14.076Z,76.54
2022-12-20T20:34:16.186Z,76.05
2022-12-20T20:39:16.910Z,76.41
2022-12-20T20:44:17.729Z,76.30
2022-12-20T20:49:20.858Z,76.27
2022-12-20T20:54:21.716Z,76.58
2022-12-20T20:59:22.880Z,76.01
2022-12-20T21:04:25.011Z,76.60
2022-12-20T21:09:25.723Z,76.84
2022-12-20T21:15:00.669Z,76.52
2022-12-20T21:19:48.488Z,76.27
2022-12-20T21:24:49.185Z,76.39
2022-12-20T21:29:49.852Z,76.50
2022-12-20T21:34:52.574Z,76.50
2022-12-20T21:39:53.659Z,76.64
2022-12-20T21:44:54.308Z,76.36
2022-12-20T21:49:57.353Z,76.60
2022-12-20T21:54:58.095Z,76.23
2022-12-20T21:59:58.790Z,76.38
2022-12-20T22:05:00.863Z,76.37
2022-12-20T22:10:01.583Z,76.18
2022-12-20T22:15:02.284Z,75.99
2022-12-20T22:20:04.682Z,76.60
2022-12-20T22:25:05.845Z,76.47
2022-12-20T22:30:07.883Z,76.57
2022-12-20T22:35:10.491Z,76.92
2022-12-20T22:40:11.918Z,77.18
2022-12-20T22:45:13.095Z,76.80
2022-12-20T22:50:15.677Z,76.68
2022-12-20T22:55:16.721Z,76.22
2022-12-20T23:00:17.809Z,76.68
2022-12-20T23:05:19.825Z,76.52
2022-12-20T23:10:34.465Z,76.64
2022-12-20T23:15:44.049Z,77.41
2022-12-20T23:21:08.642Z,77.57
2022-12-20T23:26:11.247Z,76.75
2022-12-20T23:31:12.182Z,76.97
2022-12-20T23:36:14.289Z,76.47
2022-12-20T23:41:16.744Z,76.66
2022-12-20T23:46:19.680Z,76.54
2022-12-20T23:51:22.618Z,76.26
2022-12-20T23:56:23.881Z,76.19
